Time;durP1;ratioP1;P1;durP2;ratioP2;P2;SDS_P1;SDS_P2;PMS_P1;PMS_P2;Temp;Humidity;BMP_temperature;BMP_pressure;BME280_temperature;BME280_humidity;BME280_pressure;Samples;Min_cycle;Max_cycle;Signal;HPM_P1;HPM_P2
2022/12/06 00:01:19;;;;;;;21.17;12.33;;;1.50;99.90;;;;;;5056610;28;20215;-46
2022/12/06 00:03:46;;;;;;;20.63;11.80;;;1.50;99.90;;;;;;5056870;28;20239;-46
2022/12/06 00:06:14;;;;;;;21.93;12.67;;;1.50;99.90;;;;;;5038958;28;20191;-45
2022/12/06 00:08:41;;;;;;;26.10;12.63;;;1.50;99.90;;;;;;5056519;28;20204;-47
2022/12/06 00:11:16;;;;;;;19.37;12.73;;;1.50;99.90;;;;;;5056702;28;20187;-45
2022/12/06 00:13:42;;;;;;;23.07;14.37;;;1.50;99.90;;;;;;5056906;28;20172;-45
2022/12/06 00:16:11;;;;;;;19.17;11.43;;;1.50;99.90;;;;;;5056602;28;20656;-47
2022/12/06 00:18:38;;;;;;;28.30;13.03;;;1.50;99.90;;;;;;5056459;28;20566;-45
2022/12/06 00:21:08;;;;;;;20.67;13.10;;;1.60;99.90;;;;;;5056734;28;20189;-46
2022/12/06 00:23:38;;;;;;;20.77;12.63;;;1.60;99.90;;;;;;5058678;28;20489;-46
2022/12/06 00:26:05;;;;;;;21.07;12.87;;;1.60;99.90;;;;;;5064222;28;20210;-45
2022/12/06 00:28:32;;;;;;;21.70;13.03;;;1.60;99.90;;;;;;5059872;28;20208;-48
2022/12/06 00:30:58;;;;;;;25.10;13.40;;;1.60;99.90;;;;;;5056112;28;20184;-44
2022/12/06 00:33:25;;;;;;;33.97;14.30;;;1.60;99.90;;;;;;5056106;28;20521;-46
2022/12/06 00:35:55;;;;;;;29.83;13.27;;;1.60;99.90;;;;;;5056689;28;20180;-45
2022/12/06 00:38:21;;;;;;;24.13;14.37;;;1.70;99.90;;;;;;5056154;28;20330;-47
2022/12/06 00:40:46;;;;;;;22.83;13.10;;;1.70;99.90;;;;;;5055951;28;20220;-46
2022/12/06 00:43:12;;;;;;;25.70;14.33;;;1.60;99.90;;;;;;5055503;28;20254;-47
2022/12/06 00:45:38;;;;;;;24.87;12.97;;;1.60;99.90;;;;;;5055809;28;20176;-47
2022/12/06 00:48:04;;;;;;;28.50;13.77;;;1.70;99.90;;;;;;5055989;28;20698;-46
2022/12/06 00:50:29;;;;;;;24.73;13.20;;;1.70;99.90;;;;;;5055958;28;20684;-45
2022/12/06 00:52:55;;;;;;;27.33;14.57;;;1.70;99.90;;;;;;5056152;28;20355;-44
2022/12/06 00:55:20;;;;;;;27.60;14.77;;;1.70;99.90;;;;;;5056240;28;20258;-45
2022/12/06 00:57:46;;;;;;;25.70;14.17;;;1.70;99.90;;;;;;5056020;28;20278;-45
2022/12/06 01:00:12;;;;;;;26.87;14.10;;;1.70;99.90;;;;;;5055843;28;20204;-45
2022/12/06 01:02:38;;;;;;;24.87;13.10;;;1.70;99.90;;;;;;5055376;28;20684;-45
2022/12/06 01:05:04;;;;;;;25.47;13.63;;;1.70;99.90;;;;;;5055574;28;20186;-44
2022/12/06 01:07:30;;;;;;;24.73;13.67;;;1.70;99.90;;;;;;5055490;28;20180;-45
2022/12/06 01:09:55;;;;;;;22.60;13.33;;;1.70;99.90;;;;;;5037736;28;20548;-44
2022/12/06 01:12:21;;;;;;;23.93;13.77;;;1.70;99.90;;;;;;5055693;28;20176;-44
2022/12/06 01:14:46;;;;;;;20.97;13.07;;;1.80;99.90;;;;;;5055753;28;20691;-44
2022/12/06 01:17:12;;;;;;;27.27;13.07;;;1.70;99.90;;;;;;5055799;28;20173;-44
2022/12/06 01:19:38;;;;;;;21.00;13.37;;;1.70;99.90;;;;;;5055160;28;20244;-46
2022/12/06 01:22:03;;;;;;;20.97;13.60;;;1.70;99.90;;;;;;5055461;28;20539;-45
2022/12/06 01:24:29;;;;;;;28.03;13.80;;;1.80;99.90;;;;;;5055297;28;20200;-45
2022/12/06 01:26:54;;;;;;;26.20;14.53;;;1.80;99.90;;;;;;5055546;28;20176;-46
2022/12/06 01:29:20;;;;;;;22.10;13.20;;;1.80;99.90;;;;;;5055057;28;20733;-46
2022/12/06 01:31:45;;;;;;;23.40;13.27;;;1.80;99.90;;;;;;5037310;28;20271;-45
2022/12/06 01:34:16;;;;;;;27.27;14.30;;;1.80;99.90;;;;;;5037198;28;20176;-46
2022/12/06 01:36:42;;;;;;;23.20;13.67;;;1.80;99.90;;;;;;5055181;28;20172;-45
2022/12/06 01:39:09;;;;;;;27.77;14.23;;;1.80;99.90;;;;;;5054952;28;20254;-46
2022/12/06 01:41:35;;;;;;;24.37;14.10;;;1.80;99.90;;;;;;5054981;28;20175;-46
2022/12/06 01:44:02;;;;;;;24.60;14.03;;;1.80;99.90;;;;;;5054950;28;20295;-45
2022/12/06 01:46:44;;;;;;;26.20;14.30;;;1.90;99.90;;;;;;5055128;28;20176;-45
2022/12/06 01:49:12;;;;;;;28.40;15.73;;;1.80;99.90;;;;;;5055054;28;20599;-45
2022/12/06 01:51:42;;;;;;;26.33;14.40;;;1.80;99.90;;;;;;5054707;28;20192;-45
2022/12/06 01:54:11;;;;;;;24.50;14.37;;;1.80;99.90;;;;;;5036204;28;20178;-45
2022/12/06 01:56:38;;;;;;;27.60;13.87;;;1.80;99.90;;;;;;5054844;28;20215;-45
2022/12/06 01:59:05;;;;;;;36.97;15.57;;;1.90;99.90;;;;;;5054733;28;20195;-45
2022/12/06 02:01:32;;;;;;;31.23;15.20;;;1.90;99.90;;;;;;5055118;28;20266;-45
2022/12/06 02:04:00;;;;;;;32.73;15.43;;;1.90;99.90;;;;;;5055546;28;20215;-46
2022/12/06 02:06:28;;;;;;;25.73;14.93;;;1.90;99.90;;;;;;5054799;28;20179;-45
2022/12/06 02:08:55;;;;;;;40.80;15.27;;;1.90;99.90;;;;;;5054527;28;20196;-46
2022/12/06 02:11:20;;;;;;;25.57;15.33;;;1.90;99.90;;;;;;5054850;28;20175;-45
2022/12/06 02:13:46;;;;;;;32.60;15.03;;;1.90;99.90;;;;;;5054338;28;20184;-45
2022/12/06 02:16:14;;;;;;;29.33;15.53;;;1.90;99.90;;;;;;5054529;28;20183;-45
2022/12/06 02:18:52;;;;;;;31.20;15.00;;;1.90;99.90;;;;;;5036757;28;20253;-46
2022/12/06 02:21:35;;;;;;;33.30;16.23;;;1.90;99.90;;;;;;5054589;28;20544;-46
2022/12/06 02:24:19;;;;;;;31.90;15.10;;;1.90;99.90;;;;;;5054241;28;20553;-45
2022/12/06 02:26:50;;;;;;;32.30;15.70;;;1.90;99.90;;;;;;5054551;28;20171;-45
2022/12/06 02:29:34;;;;;;;36.93;15.97;;;2.00;99.90;;;;;;5054160;28;20334;-45
2022/12/06 02:32:23;;;;;;;28.80;17.00;;;2.00;99.90;;;;;;5054482;28;20512;-45
2022/12/06 02:35:07;;;;;;;37.53;17.33;;;1.90;99.90;;;;;;5036202;28;20221;-46
2022/12/06 02:37:45;;;;;;;31.13;16.23;;;2.00;99.90;;;;;;5054213;28;20516;-46
2022/12/06 02:40:15;;;;;;;36.27;15.40;;;2.00;99.90;;;;;;5054182;28;20736;-47
2022/12/06 02:42:55;;;;;;;30.83;14.67;;;2.00;99.90;;;;;;5053733;28;20618;-46
2022/12/06 02:45:26;;;;;;;38.90;15.97;;;2.00;99.90;;;;;;5054439;28;20519;-47
2022/12/06 02:47:54;;;;;;;30.87;15.83;;;2.00;99.90;;;;;;5055285;28;20214;-46
2022/12/06 02:50:28;;;;;;;35.70;15.07;;;2.00;99.90;;;;;;5054176;28;20212;-45
2022/12/06 02:52:57;;;;;;;27.77;15.30;;;2.00;99.90;;;;;;5054154;28;20347;-45
2022/12/06 02:55:23;;;;;;;30.13;15.67;;;2.00;99.90;;;;;;5054021;28;20199;-46
2022/12/06 02:57:52;;;;;;;27.57;14.80;;;2.00;99.90;;;;;;5035932;28;20183;-45
2022/12/06 03:00:30;;;;;;;29.27;15.97;;;2.00;99.90;;;;;;5054142;28;20687;-45
2022/12/06 03:03:18;;;;;;;30.23;15.87;;;2.00;99.90;;;;;;5053567;28;20218;-45
2022/12/06 03:06:04;;;;;;;27.57;14.80;;;2.00;99.90;;;;;;5016460;28;20198;-46
2022/12/06 03:09:32;;;;;;;32.50;15.00;;;2.00;99.90;;;;;;5029191;28;20291;-46
2022/12/06 03:12:35;;;;;;;23.00;13.90;;;2.00;99.90;;;;;;4972782;28;20268;-46
2022/12/06 03:15:28;;;;;;;26.27;14.07;;;2.10;99.90;;;;;;4974136;28;20607;-46
2022/12/06 03:18:18;;;;;;;23.27;14.10;;;2.00;99.90;;;;;;5055614;28;20273;-41
2022/12/06 03:20:52;;;;;;;26.13;13.27;;;2.10;99.90;;;;;;5054097;28;20163;-42
2022/12/06 03:23:24;;;;;;;25.87;13.90;;;2.00;99.90;;;;;;5055373;28;20191;-40
2022/12/06 03:25:51;;;;;;;33.53;14.60;;;2.00;99.90;;;;;;5055012;28;20258;-42
2022/12/06 03:28:19;;;;;;;34.27;14.43;;;2.10;99.90;;;;;;5037464;28;20584;-41
2022/12/06 03:30:49;;;;;;;29.87;14.53;;;2.10;99.90;;;;;;5055355;28;20187;-40
2022/12/06 03:33:16;;;;;;;26.40;13.30;;;2.10;99.90;;;;;;5053449;28;20219;-43
2022/12/06 03:35:43;;;;;;;36.07;15.33;;;2.10;99.90;;;;;;5053325;28;20268;-41
2022/12/06 03:38:16;;;;;;;40.83;14.73;;;2.10;99.90;;;;;;5053106;28;20178;-41
2022/12/06 03:40:46;;;;;;;41.03;14.00;;;2.10;99.90;;;;;;5053476;28;20228;-43
2022/12/06 03:43:12;;;;;;;45.80;15.10;;;2.10;99.90;;;;;;5053614;28;20225;-41
2022/12/06 03:45:52;;;;;;;38.43;13.67;;;2.10;99.90;;;;;;5054190;28;20268;-44
2022/12/06 03:48:25;;;;;;;36.97;15.20;;;2.10;99.90;;;;;;5053288;28;20248;-44
2022/12/06 03:51:02;;;;;;;46.20;15.20;;;2.10;99.90;;;;;;5053320;28;20188;-42
2022/12/06 03:53:27;;;;;;;45.00;15.17;;;2.10;99.90;;;;;;5053143;28;20164;-40
2022/12/06 03:55:53;;;;;;;47.80;14.93;;;2.20;99.90;;;;;;5053111;28;20231;-42
2022/12/06 03:58:18;;;;;;;40.23;14.83;;;2.20;99.90;;;;;;5035363;28;20234;-43
2022/12/06 04:00:45;;;;;;;43.53;15.10;;;2.20;99.90;;;;;;5053349;28;20176;-42
2022/12/06 04:03:10;;;;;;;34.73;15.33;;;2.20;99.90;;;;;;5053038;28;20204;-44
2022/12/06 04:05:36;;;;;;;39.70;14.13;;;2.20;99.90;;;;;;5053929;28;20739;-43
2022/12/06 04:08:02;;;;;;;47.43;15.23;;;2.20;99.90;;;;;;5052906;28;20251;-42
2022/12/06 04:10:27;;;;;;;41.53;15.03;;;2.20;99.90;;;;;;5053012;28;20207;-43
2022/12/06 04:13:03;;;;;;;52.23;15.37;;;2.20;99.90;;;;;;5053333;28;20214;-42
2022/12/06 04:15:32;;;;;;;48.27;15.33;;;2.30;99.90;;;;;;5052745;28;20163;-44
2022/12/06 04:18:14;;;;;;;59.37;15.53;;;2.30;99.90;;;;;;5037153;28;20180;-44
2022/12/06 04:23:46;;;;;;;48.70;14.13;;;2.30;99.90;;;;;;5056596;28;20195;-42
2022/12/06 04:26:14;;;;;;;49.20;15.97;;;2.20;99.90;;;;;;5057090;28;20518;-45
2022/12/06 04:39:37;;;;;;;45.10;15.50;;;2.30;99.90;;;;;;5056274;28;20202;-44
2022/12/06 04:44:47;;;;;;;27.27;13.30;;;2.30;99.90;;;;;;5056298;28;20635;-43
2022/12/06 04:47:13;;;;;;;53.40;15.23;;;2.30;99.90;;;;;;5056070;28;20212;-43
2022/12/06 04:49:38;;;;;;;43.60;14.57;;;3.10;99.90;;;;;;5056399;28;20266;-42
2022/12/06 04:52:06;;;;;;;49.07;14.27;;;2.30;99.90;;;;;;5056063;28;20196;-42
2022/12/06 04:54:32;;;;;;;80.63;14.73;;;2.30;99.90;;;;;;5056388;28;20191;-43
2022/12/06 04:56:58;;;;;;;47.10;16.10;;;2.40;99.90;;;;;;5055969;28;20266;-43
2022/12/06 04:59:24;;;;;;;53.57;16.37;;;2.40;99.90;;;;;;5055804;28;20307;-43
2022/12/06 05:01:51;;;;;;;57.07;14.70;;;2.40;99.90;;;;;;5056013;28;20187;-41
2022/12/06 05:04:16;;;;;;;56.10;15.20;;;2.40;99.90;;;;;;5055714;28;20690;-42
2022/12/06 05:06:42;;;;;;;72.27;15.73;;;2.40;99.90;;;;;;5055789;28;20173;-43
2022/12/06 05:09:08;;;;;;;67.20;15.83;;;2.40;99.90;;;;;;5055854;28;20584;-41
2022/12/06 05:11:33;;;;;;;67.33;16.37;;;2.40;99.90;;;;;;5038185;28;20185;-41
2022/12/06 05:14:00;;;;;;;50.93;14.83;;;2.40;99.90;;;;;;5037949;28;20207;-43
2022/12/06 05:16:26;;;;;;;69.77;15.27;;;2.40;99.90;;;;;;5055597;28;20195;-42
2022/12/06 05:18:52;;;;;;;60.30;15.20;;;2.50;99.90;;;;;;5055453;28;20211;-44
2022/12/06 05:21:19;;;;;;;64.37;15.40;;;2.50;99.90;;;;;;5037924;28;20185;-42
2022/12/06 05:23:45;;;;;;;66.43;15.17;;;2.50;99.90;;;;;;5055362;28;20689;-41
2022/12/06 05:26:13;;;;;;;89.50;17.10;;;2.50;99.90;;;;;;5055483;28;20180;-42
2022/12/06 05:28:39;;;;;;;53.67;15.70;;;2.50;99.90;;;;;;5054592;28;20204;-41
2022/12/06 05:31:05;;;;;;;58.33;15.07;;;2.50;99.90;;;;;;5055304;28;20255;-42
2022/12/06 05:33:31;;;;;;;66.07;16.07;;;2.50;99.90;;;;;;5055726;28;20234;-41
2022/12/06 05:35:57;;;;;;;68.20;15.87;;;2.50;99.90;;;;;;5055583;28;20579;-41
2022/12/06 05:38:23;;;;;;;47.43;15.57;;;2.50;99.90;;;;;;5055380;28;20664;-44
2022/12/06 05:40:49;;;;;;;66.77;16.67;;;2.50;99.90;;;;;;5055190;28;20214;-44
2022/12/06 05:43:15;;;;;;;65.80;15.90;;;2.60;99.90;;;;;;5054739;28;20211;-43
2022/12/06 05:45:41;;;;;;;45.97;16.87;;;2.50;99.90;;;;;;5036861;28;20192;-41
2022/12/06 05:48:08;;;;;;;61.53;16.43;;;2.60;99.90;;;;;;5036800;28;20196;-41
2022/12/06 05:50:34;;;;;;;56.33;15.00;;;2.60;99.90;;;;;;5054743;28;20283;-42
2022/12/06 05:53:00;;;;;;;95.97;16.43;;;2.60;99.90;;;;;;5054760;28;20275;-41
2022/12/06 05:55:27;;;;;;;62.93;17.27;;;2.60;99.90;;;;;;5054993;28;20184;-41
2022/12/06 05:57:52;;;;;;;57.70;17.73;;;2.60;99.90;;;;;;5054658;28;20280;-43
2022/12/06 06:00:19;;;;;;;71.73;17.80;;;2.70;99.90;;;;;;5037086;28;20548;-41
2022/12/06 06:02:45;;;;;;;68.13;17.43;;;2.70;99.90;;;;;;5054491;28;20307;-41
2022/12/06 06:05:11;;;;;;;75.03;17.43;;;2.70;99.90;;;;;;5036668;28;20230;-42
2022/12/06 06:07:37;;;;;;;69.33;17.47;;;2.80;99.90;;;;;;5036859;28;20180;-43
2022/12/06 06:10:05;;;;;;;71.33;17.10;;;2.80;99.90;;;;;;5055911;28;20203;-43
2022/12/06 06:12:30;;;;;;;67.47;16.83;;;2.70;99.90;;;;;;5040758;28;20173;-43
2022/12/06 06:14:56;;;;;;;47.83;17.20;;;2.70;99.90;;;;;;5064635;28;20176;-42
2022/12/06 06:17:23;;;;;;;96.90;16.90;;;2.80;99.90;;;;;;5058553;28;20156;-44
2022/12/06 06:19:48;;;;;;;88.63;17.17;;;2.80;99.90;;;;;;5036369;28;20675;-42
2022/12/06 06:22:14;;;;;;;69.67;16.53;;;2.70;99.90;;;;;;5054798;28;20261;-42
2022/12/06 06:24:41;;;;;;;70.17;17.63;;;2.80;99.90;;;;;;5054156;28;20603;-43
2022/12/06 06:27:09;;;;;;;86.67;17.67;;;2.80;99.90;;;;;;5054028;28;20191;-44
2022/12/06 06:29:34;;;;;;;113.40;20.50;;;2.80;99.90;;;;;;5036422;28;20227;-43
2022/12/06 06:32:00;;;;;;;98.87;17.67;;;2.80;99.90;;;;;;5054130;28;20208;-43
2022/12/06 06:34:26;;;;;;;93.27;19.00;;;2.80;99.90;;;;;;5054038;28;20180;-42
2022/12/06 06:36:51;;;;;;;99.23;19.23;;;2.80;99.90;;;;;;5054210;28;20185;-42
2022/12/06 06:39:17;;;;;;;92.17;18.53;;;2.80;99.90;;;;;;5036224;28;20203;-44
2022/12/06 06:41:44;;;;;;;75.97;19.17;;;2.90;99.90;;;;;;5054065;28;20184;-44
2022/12/06 06:44:10;;;;;;;79.07;22.47;;;2.90;99.90;;;;;;5054115;28;20672;-44
2022/12/06 06:46:36;;;;;;;76.70;18.73;;;2.90;99.90;;;;;;5054284;28;20187;-42
2022/12/06 06:49:02;;;;;;;69.93;19.50;;;3.00;99.90;;;;;;5036038;28;20203;-43
2022/12/06 06:51:30;;;;;;;85.83;25.77;;;3.00;99.90;;;;;;5053871;28;20266;-43
2022/12/06 06:53:55;;;;;;;66.40;19.07;;;3.00;99.90;;;;;;5036006;28;20624;-42
2022/12/06 06:56:21;;;;;;;77.13;18.27;;;2.90;99.90;;;;;;5035826;28;20207;-43
2022/12/06 06:58:47;;;;;;;63.20;17.80;;;3.00;99.90;;;;;;5053594;28;20196;-41
2022/12/06 07:01:18;;;;;;;71.93;18.80;;;2.90;99.90;;;;;;5053333;28;20176;-43
2022/12/06 07:03:43;;;;;;;81.43;18.53;;;3.00;99.90;;;;;;5053195;28;20290;-42
2022/12/06 07:06:10;;;;;;;86.40;19.43;;;3.00;99.90;;;;;;5035856;28;20212;-43
2022/12/06 07:08:37;;;;;;;72.43;20.53;;;3.00;99.90;;;;;;5053330;28;20691;-43
2022/12/06 07:11:02;;;;;;;59.37;20.10;;;3.00;99.90;;;;;;5035638;28;20179;-41
2022/12/06 07:13:29;;;;;;;76.50;20.83;;;3.00;99.90;;;;;;5053412;28;20181;-43
2022/12/06 07:15:55;;;;;;;71.87;18.13;;;3.00;99.90;;;;;;5053348;28;20184;-42
2022/12/06 07:18:21;;;;;;;82.10;18.97;;;3.00;99.90;;;;;;5035290;28;20199;-43
2022/12/06 07:20:47;;;;;;;84.57;19.77;;;3.00;99.90;;;;;;5053564;28;20527;-43
2022/12/06 07:23:14;;;;;;;80.10;17.47;;;3.00;99.90;;;;;;5018971;28;20210;-43
2022/12/06 07:25:39;;;;;;;119.90;18.67;;;3.10;99.90;;;;;;5054167;28;20204;-43
2022/12/06 07:28:05;;;;;;;85.67;20.57;;;3.10;99.90;;;;;;5035171;28;20219;-41
2022/12/06 07:30:31;;;;;;;70.83;17.97;;;3.10;99.90;;;;;;5053384;28;20176;-42
2022/12/06 07:32:57;;;;;;;89.97;18.80;;;3.10;99.90;;;;;;5035262;28;20275;-42
2022/12/06 07:35:24;;;;;;;69.93;20.07;;;3.10;99.90;;;;;;5053862;28;20218;-43
2022/12/06 07:37:49;;;;;;;62.40;18.87;;;3.10;99.90;;;;;;5053058;28;20712;-41
2022/12/06 07:40:15;;;;;;;77.97;18.53;;;3.10;99.90;;;;;;5035186;28;20253;-43
2022/12/06 07:45:25;;;;;;;56.77;18.13;;;3.10;99.90;;;;;;5053075;28;20644;-43
2022/12/06 07:47:51;;;;;;;61.27;19.60;;;3.10;99.90;;;;;;5052892;28;20255;-43
2022/12/06 07:50:19;;;;;;;57.90;19.53;;;3.10;99.90;;;;;;5052559;28;20635;-42
2022/12/06 07:52:49;;;;;;;84.60;20.53;;;3.10;99.90;;;;;;5054848;28;20168;-43
2022/12/06 07:55:15;;;;;;;61.47;18.70;;;3.20;99.90;;;;;;5038962;28;20671;-43
2022/12/06 07:57:41;;;;;;;71.37;19.43;;;3.10;99.90;;;;;;5038981;28;20188;-43
2022/12/06 08:00:09;;;;;;;69.97;19.73;;;3.20;99.90;;;;;;5056810;28;20242;-44
2022/12/06 08:02:35;;;;;;;64.60;18.93;;;3.10;99.90;;;;;;5056953;28;20279;-44
2022/12/06 08:05:00;;;;;;;62.13;18.90;;;3.20;99.90;;;;;;5056843;28;20180;-42
2022/12/06 08:07:26;;;;;;;71.77;20.33;;;3.20;99.90;;;;;;5056960;28;20172;-44
2022/12/06 08:09:52;;;;;;;72.17;18.77;;;3.20;99.90;;;;;;5056507;28;20722;-42
2022/12/06 08:12:21;;;;;;;61.20;19.50;;;3.20;99.90;;;;;;5056794;28;20212;-45
2022/12/06 08:14:47;;;;;;;57.00;17.33;;;3.20;99.90;;;;;;5038637;28;20188;-44
2022/12/06 08:17:13;;;;;;;51.90;17.20;;;3.30;99.90;;;;;;5038851;28;20176;-44
2022/12/06 08:19:38;;;;;;;55.00;18.37;;;3.30;99.90;;;;;;5056470;28;20279;-41
2022/12/06 08:22:05;;;;;;;57.03;17.37;;;3.30;99.90;;;;;;5056503;28;20206;-46
2022/12/06 08:24:31;;;;;;;42.70;15.83;;;3.40;99.90;;;;;;5056456;28;20231;-45
2022/12/06 08:26:58;;;;;;;49.27;15.80;;;3.40;99.90;;;;;;5056828;28;20722;-44
2022/12/06 08:29:24;;;;;;;45.23;15.33;;;3.40;99.90;;;;;;5056479;28;20192;-44
2022/12/06 08:31:49;;;;;;;44.70;14.90;;;3.50;99.90;;;;;;5056325;28;20180;-43
2022/12/06 08:34:15;;;;;;;40.43;13.60;;;3.60;99.90;;;;;;5056498;28;20271;-44
2022/12/06 08:36:41;;;;;;;41.30;13.50;;;3.70;99.90;;;;;;5056015;28;20648;-44
2022/12/06 08:39:10;;;;;;;39.00;14.57;;;3.70;99.90;;;;;;5056104;28;20698;-42
2022/12/06 08:41:54;;;;;;;46.50;16.53;;;3.70;99.90;;;;;;5056305;28;20196;-45
2022/12/06 08:44:20;;;;;;;39.87;16.37;;;3.80;99.90;;;;;;5055775;28;20224;-45
2022/12/06 08:46:46;;;;;;;49.60;15.87;;;3.80;99.90;;;;;;5037921;28;20191;-43
2022/12/06 08:49:13;;;;;;;48.30;16.43;;;3.90;99.90;;;;;;5038564;28;20338;-42
2022/12/06 08:51:39;;;;;;;39.60;13.77;;;3.90;99.90;;;;;;5056727;28;20255;-43
2022/12/06 08:54:06;;;;;;;42.17;15.20;;;3.90;99.90;;;;;;5056236;28;20208;-43
2022/12/06 08:56:32;;;;;;;55.20;17.10;;;4.00;99.90;;;;;;5037909;28;20188;-43
2022/12/06 08:58:58;;;;;;;54.43;17.43;;;4.00;99.90;;;;;;5055900;28;20204;-43
2022/12/06 09:01:27;;;;;;;45.10;16.00;;;4.00;99.90;;;;;;5056140;28;20187;-42
2022/12/06 09:03:53;;;;;;;44.17;13.57;;;4.00;99.90;;;;;;5037841;28;20257;-42
2022/12/06 09:06:20;;;;;;;43.27;12.27;;;4.00;99.90;;;;;;5056126;28;20637;-42
2022/12/06 09:08:46;;;;;;;46.47;14.63;;;4.10;99.90;;;;;;5057266;28;20207;-42
2022/12/06 09:11:13;;;;;;;44.80;13.67;;;4.10;99.90;;;;;;5058438;28;20640;-43
2022/12/06 09:13:39;;;;;;;48.53;14.07;;;4.20;99.90;;;;;;5057552;28;20188;-43
2022/12/06 09:16:19;;;;;;;39.87;12.40;;;4.20;99.90;;;;;;5069409;28;20180;-43
2022/12/06 09:18:45;;;;;;;37.60;11.53;;;4.20;99.90;;;;;;5056813;28;20204;-42
2022/12/06 09:21:17;;;;;;;47.50;13.83;;;4.30;99.90;;;;;;5057037;28;20561;-42
2022/12/06 09:23:43;;;;;;;38.90;13.30;;;4.30;99.90;;;;;;5056596;28;20200;-44
2022/12/06 09:26:08;;;;;;;47.43;15.10;;;4.30;99.90;;;;;;5056041;28;20187;-45
2022/12/06 09:28:37;;;;;;;35.67;11.30;;;4.30;99.90;;;;;;5038336;28;20561;-43
2022/12/06 09:31:03;;;;;;;37.00;11.63;;;4.30;99.90;;;;;;5037899;28;20184;-43
2022/12/06 09:33:29;;;;;;;38.70;11.80;;;4.40;99.90;;;;;;5055799;28;20237;-43
2022/12/06 09:35:56;;;;;;;40.30;12.07;;;4.40;99.90;;;;;;5038011;28;20283;-43
2022/12/06 09:38:25;;;;;;;29.40;10.20;;;4.50;99.90;;;;;;5055650;28;20337;-43
2022/12/06 09:41:28;;;;;;;32.23;11.30;;;4.50;99.90;;;;;;5055087;28;20176;-42
2022/12/06 09:44:04;;;;;;;38.63;11.30;;;4.50;99.90;;;;;;5055282;28;20606;-40
2022/12/06 09:46:38;;;;;;;36.07;11.33;;;4.60;99.90;;;;;;5055334;28;20639;-42
2022/12/06 09:49:12;;;;;;;37.93;10.83;;;4.60;99.90;;;;;;5055394;28;20294;-42
2022/12/06 09:51:50;;;;;;;47.63;11.93;;;4.60;99.90;;;;;;5037232;28;20266;-42
2022/12/06 09:54:32;;;;;;;33.53;10.27;;;4.60;99.90;;;;;;5055055;28;20183;-43
2022/12/06 09:57:12;;;;;;;36.47;10.57;;;4.60;99.90;;;;;;5036961;28;20188;-43
2022/12/06 10:00:00;;;;;;;29.63;10.13;;;4.70;99.90;;;;;;5036772;28;20199;-43
2022/12/06 10:02:42;;;;;;;29.37;10.57;;;4.70;99.90;;;;;;5037019;28;20227;-45
2022/12/06 10:05:34;;;;;;;34.23;10.87;;;4.70;99.90;;;;;;5055151;28;20271;-45
2022/12/06 10:08:21;;;;;;;32.50;11.20;;;4.80;99.90;;;;;;5055000;28;20165;-44
2022/12/06 10:11:06;;;;;;;33.83;11.00;;;4.80;99.90;;;;;;5054724;28;20183;-43
2022/12/06 10:13:44;;;;;;;40.10;11.47;;;4.90;99.90;;;;;;5054723;28;20621;-44
2022/12/06 10:16:19;;;;;;;34.07;9.97;;;4.90;99.90;;;;;;5053977;28;20549;-43
2022/12/06 10:19:07;;;;;;;28.63;10.63;;;4.90;99.90;;;;;;5036769;28;20207;-44
2022/12/06 10:21:48;;;;;;;34.27;10.13;;;4.90;99.90;;;;;;5054745;28;20567;-44
2022/12/06 10:24:43;;;;;;;25.80;8.47;;;5.00;99.90;;;;;;5054384;28;20235;-44
2022/12/06 10:27:27;;;;;;;35.57;11.13;;;4.90;99.90;;;;;;5054930;28;20215;-42
2022/12/06 10:29:54;;;;;;;28.13;8.77;;;4.90;99.90;;;;;;5054184;28;20200;-46
2022/12/06 10:32:43;;;;;;;38.60;9.33;;;4.90;99.90;;;;;;5036351;28;20191;-44
2022/12/06 10:35:45;;;;;;;20.57;8.83;;;4.90;99.90;;;;;;5054134;28;20180;-42
2022/12/06 10:38:22;;;;;;;21.87;7.70;;;4.90;99.90;;;;;;5053936;28;20534;-46
2022/12/06 10:41:02;;;;;;;22.60;8.80;;;5.00;99.90;;;;;;5054221;28;20211;-42
2022/12/06 10:43:51;;;;;;;25.43;9.20;;;5.00;99.90;;;;;;5036344;28;20239;-44
2022/12/06 10:49:40;;;;;;;27.67;9.47;;;5.00;99.90;;;;;;5053609;28;20235;-44
2022/12/06 10:52:14;;;;;;;32.73;9.77;;;5.00;99.90;;;;;;5053451;28;20203;-45
2022/12/06 10:54:57;;;;;;;44.77;11.70;;;5.00;99.90;;;;;;5053653;28;20163;-45
2022/12/06 10:57:29;;;;;;;30.07;9.73;;;5.00;99.90;;;;;;5053797;28;20322;-43
2022/12/06 11:00:15;;;;;;;36.30;10.90;;;5.10;99.90;;;;;;5054151;28;20664;-44
2022/12/06 11:03:03;;;;;;;29.97;10.60;;;5.20;99.90;;;;;;5053458;28;20267;-43
2022/12/06 11:05:33;;;;;;;31.27;10.53;;;5.20;99.90;;;;;;5053830;28;20165;-44
2022/12/06 11:08:20;;;;;;;29.07;9.57;;;5.20;99.90;;;;;;5053890;28;20747;-46
2022/12/06 11:10:46;;;;;;;22.33;8.70;;;5.20;99.90;;;;;;5053662;28;20282;-44
2022/12/06 11:13:34;;;;;;;32.40;9.83;;;5.30;99.90;;;;;;5053625;28;20212;-43
2022/12/06 11:16:15;;;;;;;29.83;10.67;;;5.30;99.90;;;;;;5053270;28;20172;-42
2022/12/06 11:18:42;;;;;;;32.37;10.13;;;5.30;99.90;;;;;;5053700;28;20214;-42
2022/12/06 11:21:28;;;;;;;29.23;9.70;;;5.30;99.90;;;;;;5053328;28;20182;-43
2022/12/06 11:24:13;;;;;;;24.27;7.70;;;5.30;99.90;;;;;;5053141;28;20214;-44
2022/12/06 11:27:14;;;;;;;31.67;8.67;;;5.40;99.90;;;;;;5053481;28;20178;-42
2022/12/06 11:29:42;;;;;;;38.33;10.53;;;5.40;99.90;;;;;;5057643;28;20280;-43
2022/12/06 11:32:10;;;;;;;26.33;10.27;;;5.50;99.90;;;;;;5057829;28;20204;-42
2022/12/06 11:34:42;;;;;;;27.43;9.23;;;5.50;99.90;;;;;;5057505;28;20555;-41
2022/12/06 11:37:15;;;;;;;26.43;9.43;;;5.50;99.90;;;;;;5057851;28;20186;-44
2022/12/06 11:39:41;;;;;;;20.80;8.00;;;5.50;99.90;;;;;;5057531;28;20244;-42
2022/12/06 11:42:08;;;;;;;27.40;9.50;;;5.50;99.90;;;;;;5057681;28;20186;-42
2022/12/06 11:44:41;;;;;;;23.57;9.90;;;5.50;99.90;;;;;;5056935;28;20669;-44
2022/12/06 11:47:10;;;;;;;27.07;8.53;;;5.50;99.90;;;;;;5057851;28;20201;-43
2022/12/06 11:49:38;;;;;;;23.33;8.80;;;5.60;99.90;;;;;;5045181;28;20234;-45
2022/12/06 11:52:46;;;;;;;26.33;8.17;;;5.60;99.90;;;;;;5056757;28;20201;-43
2022/12/06 11:55:22;;;;;;;23.43;7.17;;;5.70;99.90;;;;;;5018364;28;20724;-45
2022/12/06 11:58:24;;;;;;;23.47;7.80;;;5.70;99.90;;;;;;5056871;28;20181;-42
2022/12/06 12:01:04;;;;;;;18.47;6.87;;;5.70;99.90;;;;;;5057232;28;20164;-44
2022/12/06 12:03:33;;;;;;;24.03;7.53;;;5.70;99.90;;;;;;5057086;28;20208;-42
2022/12/06 12:06:20;;;;;;;23.10;7.53;;;5.70;99.90;;;;;;5056801;28;20185;-43
2022/12/06 12:09:00;;;;;;;21.80;6.93;;;5.70;99.90;;;;;;5056959;28;20281;-45
2022/12/06 12:11:29;;;;;;;14.77;5.93;;;5.70;99.90;;;;;;5056669;28;20199;-44
2022/12/06 12:14:00;;;;;;;23.37;7.73;;;5.70;99.90;;;;;;5045970;28;20177;-45
2022/12/06 12:16:48;;;;;;;20.00;6.80;;;5.70;99.90;;;;;;5070954;28;20182;-45
2022/12/06 12:19:32;;;;;;;21.47;7.60;;;5.80;99.90;;;;;;5059394;28;20256;-45
2022/12/06 12:21:59;;;;;;;11.83;6.43;;;5.80;99.90;;;;;;5056937;28;20607;-45
2022/12/06 12:24:42;;;;;;;19.57;8.47;;;5.80;99.90;;;;;;5056472;28;20211;-45
2022/12/06 12:27:26;;;;;;;20.17;8.23;;;5.80;99.90;;;;;;5056731;28;20245;-45
2022/12/06 12:30:15;;;;;;;19.83;7.70;;;5.80;99.90;;;;;;5056616;28;20207;-45
2022/12/06 12:32:42;;;;;;;18.00;7.40;;;5.80;99.90;;;;;;5056176;28;20171;-43
2022/12/06 12:35:24;;;;;;;24.67;11.37;;;5.80;99.90;;;;;;5056142;28;20186;-44
2022/12/06 12:37:53;;;;;;;17.80;8.57;;;5.90;99.90;;;;;;5055997;28;20163;-44
2022/12/06 12:40:28;;;;;;;16.67;6.60;;;5.90;99.90;;;;;;5056179;28;20199;-43
2022/12/06 12:43:07;;;;;;;17.47;8.23;;;5.90;99.90;;;;;;5056674;28;20573;-45
2022/12/06 12:45:33;;;;;;;13.63;7.17;;;5.90;99.90;;;;;;5038763;28;20163;-43
2022/12/06 12:48:01;;;;;;;14.77;6.70;;;5.90;99.90;;;;;;5055746;28;20182;-47
2022/12/06 12:50:29;;;;;;;16.53;8.27;;;5.90;99.90;;;;;;5056211;28;20200;-43
2022/12/06 12:52:55;;;;;;;16.60;8.90;;;5.90;99.90;;;;;;5037896;28;20171;-44
2022/12/06 12:55:26;;;;;;;22.83;8.83;;;5.90;99.90;;;;;;5055848;28;20257;-43
2022/12/06 12:57:54;;;;;;;15.93;7.77;;;5.90;99.90;;;;;;5055876;28;20171;-44
2022/12/06 13:00:29;;;;;;;27.20;12.90;;;5.90;99.90;;;;;;5055762;28;20210;-45
2022/12/06 13:02:59;;;;;;;27.57;18.80;;;6.00;99.90;;;;;;5056040;28;20170;-42
2022/12/06 13:05:31;;;;;;;29.20;19.13;;;6.00;99.90;;;;;;5055406;28;20565;-44
2022/12/06 13:08:20;;;;;;;24.27;17.17;;;6.00;99.90;;;;;;5055702;28;20187;-43
2022/12/06 13:10:48;;;;;;;17.70;11.73;;;6.00;99.90;;;;;;5055752;28;20598;-44
2022/12/06 13:13:18;;;;;;;26.83;13.80;;;6.00;99.90;;;;;;5055596;28;20270;-43
2022/12/06 13:15:46;;;;;;;32.17;12.33;;;6.10;99.90;;;;;;5055663;28;20185;-44
2022/12/06 13:18:20;;;;;;;25.50;12.83;;;6.10;99.90;;;;;;5055355;28;20242;-45
2022/12/06 13:20:48;;;;;;;23.63;13.40;;;6.10;99.90;;;;;;5055773;28;20176;-44